Accueil
METAR-TAF:

METAR-TAF

Aéroports :

Aurigny,

Aéroport d'Aurigny

latitude: 49-43N, longitude: 002-12W, altitude: 71 m

Observation

Le bulletin a été fait il y a 35 minutes, à 11:50 UTC
Vent 21 kt de est
Température 4°C
Pression 1017 hPa
Visibilité 10 km ou plus
Nuages épars à une hauteur de 2800 ft

METAR: EGJA 231150Z 08021KT 9999 SCT028 04/// Q1017

Heure: 12:25 (12:25 UTC)

Prévision

Le bulletin a été fait il y a 1 heure et 23 minutes, à 11:02 UTC
Prévision valable du 23 à 12 UTC au 23 à 19 UTC
Vent 20 kt de est
Visibilité 10 km ou plus
Nuages épars à une hauteur de 2800 ft

TAF: EGJA 231102Z 2312/2319 09020KT 9999 SCT028

Observations et prévisions météorologiques de plus de 4000 aéroports (messages METAR et TAF).

Les stations disponibles sont représentées par des disques jaunes et rouges sur la carte.

Passer la souris dessus pour voir le nom de la station.

Cliquer dessus pour voir les observations et prévisions météorologiques.

Pour changer de carte: cliquez sur les boutons verts avec une croix noire pour zoomer, sur le bouton vert avec un tiret pour effectuer un zoom arrière, ou sur les flèches vertes pour les cartes adjacentes.


METAR-TAF: